Time;durP1;ratioP1;P1;durP2;ratioP2;P2;SDS_P1;SDS_P2;PMS_P1;PMS_P2;Temp;Humidity;BMP_temperature;BMP_pressure;BME280_temperature;BME280_humidity;BME280_pressure;Samples;Min_cycle;Max_cycle;Signal;HPM_P1;HPM_P2
2024/01/17 00:01:30;;;;;;;12.77;8.03;;;-0.40;99.90;;;;;;5036488;28;20578;-69
2024/01/17 00:03:55;;;;;;;14.13;7.10;;;-0.40;99.90;;;;;;5036079;28;20475;-70
2024/01/17 00:06:21;;;;;;;12.37;6.80;;;-0.40;99.90;;;;;;5035275;28;20186;-70
2024/01/17 00:08:47;;;;;;;9.40;6.93;;;-0.40;99.90;;;;;;5018033;28;20209;-69
2024/01/17 00:11:12;;;;;;;9.90;6.77;;;-0.50;99.90;;;;;;5036070;28;20191;-70
2024/01/17 00:13:38;;;;;;;10.37;6.87;;;-0.40;99.90;;;;;;5035888;28;20182;-70
2024/01/17 00:16:04;;;;;;;8.43;7.10;;;-0.40;99.90;;;;;;5035645;28;20205;-70
2024/01/17 00:18:30;;;;;;;9.47;7.60;;;-0.50;99.90;;;;;;5035924;28;20183;-70
2024/01/17 00:20:56;;;;;;;9.43;6.67;;;-0.50;99.90;;;;;;5017899;28;20478;-70
2024/01/17 00:23:22;;;;;;;12.40;7.23;;;-0.50;99.90;;;;;;5035606;28;20349;-70
2024/01/17 00:25:47;;;;;;;11.00;8.20;;;-0.50;99.90;;;;;;5033912;28;20565;-70
2024/01/17 00:28:14;;;;;;;10.33;7.40;;;-0.50;99.90;;;;;;5035775;28;20193;-70
2024/01/17 00:30:39;;;;;;;10.83;6.57;;;-0.60;99.90;;;;;;5034905;28;20191;-70
2024/01/17 00:33:05;;;;;;;12.17;7.63;;;-0.60;99.90;;;;;;5036094;28;20473;-69
2024/01/17 00:35:31;;;;;;;10.30;7.40;;;-0.60;99.90;;;;;;5035556;28;20214;-69
2024/01/17 00:37:56;;;;;;;11.77;7.20;;;-0.60;99.90;;;;;;5035210;28;20189;-69
2024/01/17 00:40:22;;;;;;;10.07;7.10;;;-0.60;99.90;;;;;;5031863;28;20245;-70
2024/01/17 00:42:48;;;;;;;9.63;7.07;;;-0.60;99.90;;;;;;5035219;28;20210;-69
2024/01/17 00:45:14;;;;;;;8.23;6.40;;;-0.60;99.90;;;;;;5035571;28;20217;-69
2024/01/17 00:47:40;;;;;;;10.17;7.00;;;-0.60;99.90;;;;;;5034435;28;20461;-70
2024/01/17 00:50:06;;;;;;;7.80;6.80;;;-0.60;99.90;;;;;;5017354;28;20860;-69
2024/01/17 00:52:32;;;;;;;8.73;6.67;;;-0.50;99.90;;;;;;5034943;28;20186;-69
2024/01/17 00:54:58;;;;;;;8.47;6.53;;;-0.60;99.90;;;;;;5034554;28;20396;-69
2024/01/17 00:57:24;;;;;;;8.43;6.77;;;-0.60;99.90;;;;;;5034444;28;20216;-70
2024/01/17 00:59:49;;;;;;;11.20;7.20;;;-0.60;99.90;;;;;;5034757;28;20493;-68
2024/01/17 01:02:15;;;;;;;10.00;7.17;;;-0.60;99.90;;;;;;5034910;28;20244;-69
2024/01/17 01:04:40;;;;;;;11.20;6.70;;;-0.50;99.90;;;;;;5034296;28;20202;-69
2024/01/17 01:07:06;;;;;;;10.47;6.93;;;-0.50;99.90;;;;;;5034247;28;20186;-69
2024/01/17 01:09:32;;;;;;;8.87;6.77;;;-0.50;99.90;;;;;;5034698;28;20662;-69
2024/01/17 01:11:58;;;;;;;11.20;6.63;;;-0.60;99.90;;;;;;5033925;28;20805;-70
2024/01/17 01:14:23;;;;;;;8.70;6.60;;;-0.70;99.90;;;;;;5034303;28;20208;-69
2024/01/17 01:16:49;;;;;;;10.83;6.73;;;-0.70;99.90;;;;;;5034386;28;20198;-69
2024/01/17 01:19:15;;;;;;;8.23;6.43;;;-0.70;99.90;;;;;;5035124;28;20189;-69
2024/01/17 01:21:42;;;;;;;9.80;6.43;;;-0.70;99.90;;;;;;5033609;28;20213;-69
2024/01/17 01:24:08;;;;;;;9.07;6.70;;;-0.80;99.90;;;;;;5034176;28;20473;-69
2024/01/17 01:26:35;;;;;;;7.37;6.30;;;-0.80;99.90;;;;;;5033279;28;20444;-70
2024/01/17 01:29:01;;;;;;;11.43;6.53;;;-0.70;99.90;;;;;;5034553;28;20502;-69
2024/01/17 01:31:27;;;;;;;9.87;6.80;;;-0.80;99.90;;;;;;5034829;28;20961;-69
2024/01/17 01:33:53;;;;;;;6.17;5.57;;;-0.80;99.90;;;;;;5033316;28;20550;-69
2024/01/17 01:36:19;;;;;;;8.17;6.40;;;-0.90;99.90;;;;;;5015862;28;20199;-69
2024/01/17 01:38:44;;;;;;;9.03;5.70;;;-0.90;99.90;;;;;;5033595;28;20343;-69
2024/01/17 01:41:10;;;;;;;6.73;5.47;;;-0.90;99.90;;;;;;5033622;28;20524;-69
2024/01/17 01:43:36;;;;;;;8.60;5.40;;;-0.90;99.90;;;;;;5033539;28;20190;-69
2024/01/17 01:46:13;;;;;;;8.17;6.23;;;-1.00;99.90;;;;;;5034072;28;20179;-68
2024/01/17 01:48:41;;;;;;;7.23;5.43;;;-1.00;99.90;;;;;;5033056;28;20267;-70
2024/01/17 01:51:08;;;;;;;10.07;6.70;;;-1.10;99.90;;;;;;5034548;28;20403;-70
2024/01/17 01:53:36;;;;;;;11.43;6.70;;;-1.10;99.90;;;;;;5032968;28;20485;-69
2024/01/17 01:56:02;;;;;;;7.60;6.03;;;-1.10;99.90;;;;;;5032645;28;20487;-69
2024/01/17 01:58:29;;;;;;;9.37;6.60;;;-1.40;99.90;;;;;;5034215;28;20429;-70
2024/01/17 02:00:56;;;;;;;9.53;6.10;;;-1.20;99.90;;;;;;5033148;28;20428;-69
2024/01/17 02:03:23;;;;;;;11.60;6.27;;;-1.20;99.90;;;;;;5033681;28;20399;-69
2024/01/17 02:05:49;;;;;;;9.10;6.27;;;-1.20;99.90;;;;;;5032603;28;20447;-69
2024/01/17 02:08:15;;;;;;;12.13;6.33;;;-1.30;99.90;;;;;;5034026;28;21138;-69
2024/01/17 02:10:41;;;;;;;9.90;6.47;;;-1.30;99.90;;;;;;5033273;28;20433;-69
2024/01/17 02:13:07;;;;;;;12.00;6.67;;;-1.30;99.90;;;;;;5034065;28;20586;-70
2024/01/17 02:15:33;;;;;;;10.97;6.20;;;-1.30;99.90;;;;;;5031897;28;20190;-69
2024/01/17 02:17:59;;;;;;;7.97;6.00;;;-1.40;99.90;;;;;;5033982;28;20429;-69
2024/01/17 02:20:25;;;;;;;9.30;6.57;;;-1.40;99.90;;;;;;5015579;28;20190;-70
2024/01/17 02:22:51;;;;;;;9.00;6.60;;;-1.40;99.90;;;;;;5033228;28;20496;-70
2024/01/17 02:25:17;;;;;;;7.83;6.00;;;-1.40;99.90;;;;;;5033394;28;20473;-70
2024/01/17 02:27:42;;;;;;;8.43;6.20;;;-1.50;99.90;;;;;;5032820;28;20261;-69
2024/01/17 02:30:08;;;;;;;8.70;6.47;;;-1.40;99.90;;;;;;5034196;28;20194;-69
2024/01/17 02:32:35;;;;;;;10.70;6.10;;;-1.50;99.90;;;;;;5031836;28;20193;-69
2024/01/17 02:35:02;;;;;;;8.00;6.27;;;-1.50;99.90;;;;;;5033300;28;20545;-70
2024/01/17 02:37:27;;;;;;;9.90;6.27;;;-1.50;99.90;;;;;;5033434;28;20464;-69
2024/01/17 02:39:53;;;;;;;7.97;6.10;;;-1.60;99.90;;;;;;5033559;28;20463;-69
2024/01/17 02:42:19;;;;;;;9.83;6.90;;;-1.40;99.90;;;;;;5032369;28;20819;-70
2024/01/17 02:44:44;;;;;;;9.80;7.23;;;-1.40;99.90;;;;;;5032841;28;20244;-69
2024/01/17 02:47:10;;;;;;;7.93;6.33;;;-1.30;99.90;;;;;;5033507;28;20182;-69
2024/01/17 02:49:36;;;;;;;10.80;7.03;;;-1.30;99.90;;;;;;5032295;28;20182;-69
2024/01/17 02:52:01;;;;;;;10.20;7.00;;;-1.20;99.90;;;;;;5033299;28;20637;-69
2024/01/17 02:54:27;;;;;;;8.10;7.17;;;-1.20;99.90;;;;;;5032883;28;20185;-70
2024/01/17 02:56:53;;;;;;;9.63;6.57;;;-1.20;99.90;;;;;;5032730;28;20191;-69
2024/01/17 02:59:18;;;;;;;10.20;6.83;;;-1.20;99.90;;;;;;5032374;28;20252;-70
2024/01/17 03:01:46;;;;;;;8.80;6.70;;;-1.20;99.90;;;;;;5031686;28;20580;-70
2024/01/17 03:04:11;;;;;;;8.90;6.80;;;-1.20;99.90;;;;;;5032841;28;20896;-70
2024/01/17 03:06:37;;;;;;;9.63;6.90;;;-1.10;99.90;;;;;;4999174;28;20502;-70
2024/01/17 03:09:04;;;;;;;10.43;6.53;;;-1.20;99.90;;;;;;5031048;28;20222;-69
2024/01/17 03:11:30;;;;;;;8.23;6.23;;;-1.10;99.90;;;;;;5030016;28;20194;-70
2024/01/17 03:13:56;;;;;;;10.47;6.63;;;-1.10;99.90;;;;;;5033057;28;20406;-70
2024/01/17 03:16:21;;;;;;;8.80;7.00;;;-1.10;99.90;;;;;;5032514;28;20426;-70
2024/01/17 03:18:47;;;;;;;10.13;7.10;;;-1.00;99.90;;;;;;5032922;28;20429;-69
2024/01/17 03:21:16;;;;;;;14.30;7.50;;;-1.00;99.90;;;;;;5031895;28;20435;-69
2024/01/17 03:23:41;;;;;;;8.23;6.13;;;-1.00;99.90;;;;;;5031628;28;20546;-69
2024/01/17 03:26:08;;;;;;;7.47;6.63;;;-1.00;99.90;;;;;;5033341;28;20407;-68
2024/01/17 03:28:34;;;;;;;11.20;7.63;;;-1.00;99.90;;;;;;5031570;28;20217;-69
2024/01/17 03:30:59;;;;;;;11.10;6.90;;;-0.90;99.90;;;;;;5033801;28;21003;-69
2024/01/17 03:33:25;;;;;;;10.67;7.40;;;-0.90;99.90;;;;;;5033005;28;20668;-69
2024/01/17 03:35:50;;;;;;;9.23;7.13;;;-0.90;99.90;;;;;;5032036;28;20796;-69
2024/01/17 03:38:18;;;;;;;10.67;7.10;;;-0.90;99.90;;;;;;5033365;28;20664;-69
2024/01/17 03:40:44;;;;;;;11.90;7.53;;;-0.90;99.90;;;;;;5032657;28;20177;-69
2024/01/17 03:43:11;;;;;;;10.57;7.47;;;-1.00;99.90;;;;;;5033167;28;20424;-69
2024/01/17 03:45:37;;;;;;;15.10;7.13;;;-1.00;99.90;;;;;;5032382;28;21219;-68
2024/01/17 03:48:04;;;;;;;10.47;7.50;;;-1.00;99.90;;;;;;5032924;28;20511;-68
2024/01/17 03:50:30;;;;;;;10.47;7.70;;;-1.00;99.90;;;;;;5031619;28;20224;-70
2024/01/17 03:52:56;;;;;;;10.70;7.20;;;-0.90;99.90;;;;;;5032867;28;20465;-69
2024/01/17 03:55:21;;;;;;;8.33;6.70;;;-1.00;99.90;;;;;;5032252;28;20676;-69
2024/01/17 03:57:47;;;;;;;9.37;7.77;;;-0.70;99.90;;;;;;5032731;28;20224;-69
2024/01/17 04:00:14;;;;;;;8.77;6.90;;;-0.90;99.90;;;;;;5033706;28;20605;-69
2024/01/17 04:02:40;;;;;;;12.17;7.27;;;-1.00;99.90;;;;;;5035370;28;20185;-69
2024/01/17 04:05:06;;;;;;;10.93;7.80;;;-0.90;99.90;;;;;;5036726;28;20444;-69
2024/01/17 04:07:32;;;;;;;13.10;7.60;;;-1.00;99.90;;;;;;5035952;28;20200;-69
2024/01/17 04:09:58;;;;;;;11.40;7.13;;;-1.00;99.90;;;;;;5036438;28;20812;-69
2024/01/17 04:12:24;;;;;;;12.70;8.30;;;-1.00;99.90;;;;;;5017781;28;20186;-69
2024/01/17 04:14:49;;;;;;;10.50;7.50;;;-1.10;99.90;;;;;;5003037;28;20216;-68
2024/01/17 04:17:15;;;;;;;10.67;8.23;;;-1.00;99.90;;;;;;5036830;28;20242;-69
2024/01/17 04:19:41;;;;;;;11.73;6.87;;;-1.00;99.90;;;;;;5035618;28;20239;-69
2024/01/17 04:22:07;;;;;;;11.90;7.60;;;-1.00;99.90;;;;;;5035855;28;20555;-68
2024/01/17 04:24:33;;;;;;;14.87;8.60;;;-0.90;99.90;;;;;;5035927;28;20463;-69
2024/01/17 04:26:58;;;;;;;12.20;7.30;;;-1.00;99.90;;;;;;5036030;28;20771;-68
2024/01/17 04:29:24;;;;;;;13.00;8.30;;;-1.00;99.90;;;;;;5035922;28;20185;-69
2024/01/17 04:31:50;;;;;;;11.73;8.40;;;-1.00;99.90;;;;;;5035166;28;20658;-69
2024/01/17 04:34:16;;;;;;;12.10;8.23;;;-0.90;99.90;;;;;;5035602;28;20452;-69
2024/01/17 04:36:42;;;;;;;10.57;8.50;;;-0.90;99.90;;;;;;5035303;28;20515;-69
2024/01/17 04:39:08;;;;;;;15.43;8.80;;;-1.00;99.90;;;;;;5035305;28;20187;-68
2024/01/17 04:41:34;;;;;;;15.67;8.93;;;-1.30;99.90;;;;;;5034344;28;20444;-67
2024/01/17 04:44:00;;;;;;;12.53;8.27;;;-0.90;99.90;;;;;;5034850;28;20475;-71
2024/01/17 04:46:26;;;;;;;12.23;8.67;;;-0.90;99.90;;;;;;5016675;28;20524;-68
2024/01/17 04:48:52;;;;;;;11.93;8.30;;;-0.90;99.90;;;;;;5018330;28;20531;-70
2024/01/17 04:51:21;;;;;;;13.40;8.77;;;-0.90;99.90;;;;;;5035068;28;20718;-69
2024/01/17 04:53:48;;;;;;;14.23;8.47;;;-0.90;99.90;;;;;;5035533;28;20187;-69
2024/01/17 04:56:15;;;;;;;13.47;9.20;;;-0.90;99.90;;;;;;5035338;28;20414;-69
2024/01/17 04:58:43;;;;;;;15.27;7.90;;;-0.90;99.90;;;;;;5018060;28;20432;-70
2024/01/17 05:01:09;;;;;;;11.80;8.83;;;-0.90;99.90;;;;;;5035215;28;20511;-69
2024/01/17 05:03:35;;;;;;;11.63;8.97;;;-0.90;99.90;;;;;;5016537;28;20404;-70
2024/01/17 05:06:02;;;;;;;12.23;7.90;;;-0.90;99.90;;;;;;5034962;28;20479;-69
2024/01/17 05:08:28;;;;;;;11.80;8.67;;;-0.80;99.90;;;;;;5017195;28;20489;-70
2024/01/17 05:10:55;;;;;;;12.87;8.43;;;-0.80;99.90;;;;;;5034910;28;20411;-70
2024/01/17 05:13:21;;;;;;;12.03;8.70;;;-0.90;99.90;;;;;;5033328;28;20885;-70
2024/01/17 05:15:46;;;;;;;11.97;8.27;;;-0.90;99.90;;;;;;5017138;28;20487;-70
2024/01/17 05:18:12;;;;;;;14.23;9.27;;;-1.20;99.90;;;;;;5033810;28;20250;-68
2024/01/17 05:20:38;;;;;;;12.33;7.67;;;-1.10;99.90;;;;;;5034218;28;20178;-69
2024/01/17 05:23:04;;;;;;;11.23;8.07;;;-0.90;99.90;;;;;;5033449;28;20182;-70
2024/01/17 05:25:30;;;;;;;14.67;8.63;;;-0.90;99.90;;;;;;5029861;28;20491;-69
2024/01/17 05:27:56;;;;;;;10.27;8.27;;;-0.90;99.90;;;;;;5032964;28;20194;-69
2024/01/17 05:30:25;;;;;;;12.03;8.60;;;-0.90;99.90;;;;;;5032624;28;20408;-68
2024/01/17 05:32:52;;;;;;;10.23;7.67;;;-0.90;99.90;;;;;;5032090;28;20474;-70
2024/01/17 05:35:18;;;;;;;10.27;8.70;;;-0.90;99.90;;;;;;5032016;28;20429;-70
2024/01/17 05:37:45;;;;;;;12.00;8.10;;;-0.90;99.90;;;;;;5016001;28;20448;-69
2024/01/17 05:40:15;;;;;;;10.30;7.93;;;-0.90;99.90;;;;;;5033413;28;20425;-70
2024/01/17 05:42:45;;;;;;;10.90;7.87;;;-0.80;99.90;;;;;;5033326;28;20489;-69
2024/01/17 05:45:11;;;;;;;12.33;7.87;;;-1.10;99.90;;;;;;5032947;28;20488;-69
2024/01/17 05:47:38;;;;;;;14.43;8.60;;;-0.70;99.90;;;;;;5034898;28;20824;-70
2024/01/17 05:50:11;;;;;;;13.33;8.33;;;-0.90;99.90;;;;;;5034892;28;20399;-69
2024/01/17 05:52:41;;;;;;;10.23;7.47;;;-0.80;99.90;;;;;;5033855;28;20400;-69
2024/01/17 05:55:10;;;;;;;9.83;7.60;;;-0.90;99.90;;;;;;5033839;28;20396;-69
2024/01/17 05:57:37;;;;;;;13.80;8.77;;;-0.90;99.90;;;;;;5033461;28;20440;-69
2024/01/17 06:00:04;;;;;;;14.10;8.47;;;-0.80;99.90;;;;;;5033818;28;20524;-71
2024/01/17 06:02:30;;;;;;;11.47;7.43;;;-0.80;99.90;;;;;;5033251;28;20461;-69
2024/01/17 06:04:56;;;;;;;11.40;8.47;;;-0.90;99.90;;;;;;5032303;28;20944;-69
2024/01/17 06:07:21;;;;;;;13.43;7.23;;;-0.80;99.90;;;;;;5015134;28;20182;-69
2024/01/17 06:09:47;;;;;;;11.40;8.37;;;-0.80;99.90;;;;;;5034616;28;21006;-69
2024/01/17 06:12:13;;;;;;;13.43;8.87;;;-0.80;99.90;;;;;;5033651;28;20538;-68
2024/01/17 06:14:40;;;;;;;12.70;7.67;;;-0.80;99.90;;;;;;5033600;28;20413;-69
2024/01/17 06:17:06;;;;;;;10.70;7.77;;;-0.80;99.90;;;;;;5033193;28;20579;-69
2024/01/17 06:19:32;;;;;;;10.33;7.57;;;-0.60;99.90;;;;;;5033175;28;20428;-70
2024/01/17 06:21:58;;;;;;;12.97;8.93;;;-0.80;99.90;;;;;;5014883;28;20435;-70
2024/01/17 06:24:24;;;;;;;13.27;8.00;;;-0.80;99.90;;;;;;5031226;28;20474;-68
2024/01/17 06:26:49;;;;;;;12.37;7.97;;;-0.80;99.90;;;;;;5033128;28;20432;-69
2024/01/17 06:29:15;;;;;;;12.07;7.20;;;-0.80;99.90;;;;;;5015777;28;20541;-70
2024/01/17 06:31:41;;;;;;;12.00;7.43;;;-0.80;99.90;;;;;;5032563;28;20248;-70
2024/01/17 06:34:06;;;;;;;16.83;7.67;;;-0.80;99.90;;;;;;5033876;28;20182;-69
2024/01/17 06:36:32;;;;;;;13.63;7.57;;;-1.00;99.90;;;;;;5032405;28;20235;-70
2024/01/17 06:38:59;;;;;;;8.20;6.60;;;-0.70;99.90;;;;;;5033798;28;20182;-69
2024/01/17 06:41:24;;;;;;;14.07;8.00;;;-0.70;99.90;;;;;;5031342;28;20444;-69
2024/01/17 06:43:50;;;;;;;11.40;8.50;;;-0.70;99.90;;;;;;5033284;28;20784;-70
2024/01/17 06:46:16;;;;;;;9.60;6.93;;;-0.80;99.90;;;;;;5031044;28;20698;-69
2024/01/17 06:48:41;;;;;;;11.23;6.80;;;-0.70;99.90;;;;;;5029863;28;20644;-69
2024/01/17 06:51:07;;;;;;;12.30;7.67;;;-0.70;99.90;;;;;;5031508;28;20266;-69
2024/01/17 06:53:34;;;;;;;10.37;6.43;;;-0.70;99.90;;;;;;5029896;28;20948;-69
2024/01/17 06:55:59;;;;;;;11.37;8.20;;;-0.70;99.90;;;;;;5032343;28;20233;-68
2024/01/17 06:58:25;;;;;;;11.37;7.50;;;-0.70;99.90;;;;;;5014760;28;20424;-69
2024/01/17 07:00:51;;;;;;;9.17;7.30;;;-0.70;99.90;;;;;;5032707;28;20190;-69
2024/01/17 07:03:16;;;;;;;9.60;7.17;;;-0.60;99.90;;;;;;5031491;28;20885;-69
2024/01/17 07:05:42;;;;;;;9.67;5.80;;;-0.60;99.90;;;;;;5030102;28;20227;-70
2024/01/17 07:08:08;;;;;;;10.03;6.83;;;-0.60;99.90;;;;;;5030770;28;20189;-72
2024/01/17 07:10:35;;;;;;;12.00;7.90;;;-0.60;99.90;;;;;;5014497;28;20523;-71
2024/01/17 07:13:01;;;;;;;10.93;7.10;;;-0.60;99.90;;;;;;5032268;28;20715;-71
2024/01/17 07:15:27;;;;;;;9.53;5.47;;;-0.60;99.90;;;;;;5031455;28;20437;-71
2024/01/17 07:17:52;;;;;;;11.87;6.93;;;-0.60;99.90;;;;;;5015311;28;20553;-71
2024/01/17 07:20:18;;;;;;;9.23;6.53;;;-0.60;99.90;;;;;;5031091;28;21011;-71
2024/01/17 07:22:44;;;;;;;9.20;5.47;;;-0.60;99.90;;;;;;5033431;28;20410;-71
2024/01/17 07:25:12;;;;;;;8.33;6.13;;;-0.60;99.90;;;;;;5032037;28;20209;-71
2024/01/17 07:27:46;;;;;;;10.60;6.90;;;-0.60;99.90;;;;;;5015563;28;20429;-71
2024/01/17 07:30:12;;;;;;;10.77;6.23;;;-0.50;99.90;;;;;;5032482;28;20413;-71
2024/01/17 07:32:39;;;;;;;11.03;6.40;;;-0.50;99.90;;;;;;5032927;28;20417;-71
2024/01/17 07:35:05;;;;;;;11.70;8.40;;;-0.50;99.90;;;;;;5034941;28;20450;-71
2024/01/17 07:37:31;;;;;;;7.83;5.90;;;-0.50;99.90;;;;;;5036428;28;20429;-71
2024/01/17 07:39:57;;;;;;;9.57;6.20;;;-0.50;99.90;;;;;;5036466;28;20444;-71
2024/01/17 07:42:23;;;;;;;8.07;5.63;;;-0.50;99.90;;;;;;5035771;28;20191;-71
2024/01/17 07:44:49;;;;;;;10.63;7.47;;;-0.40;99.90;;;;;;5036481;28;20472;-71
2024/01/17 07:47:15;;;;;;;8.93;5.67;;;-0.50;99.90;;;;;;5037355;28;20443;-71
2024/01/17 07:49:41;;;;;;;13.70;7.50;;;-0.50;99.90;;;;;;5036583;28;20178;-71
2024/01/17 07:52:07;;;;;;;8.10;5.80;;;-0.50;99.90;;;;;;5035664;28;20186;-72
2024/01/17 07:54:33;;;;;;;11.80;6.40;;;-0.50;99.90;;;;;;5036325;28;20435;-71
2024/01/17 07:56:58;;;;;;;8.30;6.30;;;-0.50;99.90;;;;;;5018132;28;20942;-71
2024/01/17 07:59:26;;;;;;;9.67;6.77;;;-0.50;99.90;;;;;;5035714;28;20189;-71
2024/01/17 08:01:52;;;;;;;8.73;6.33;;;-0.50;99.90;;;;;;5018302;28;20186;-71
2024/01/17 08:04:17;;;;;;;9.00;6.63;;;-0.50;99.90;;;;;;5034762;28;20464;-71
2024/01/17 08:06:43;;;;;;;9.60;5.93;;;-0.50;99.90;;;;;;5032714;28;20927;-71
2024/01/17 08:09:21;;;;;;;8.00;6.20;;;-0.50;99.90;;;;;;5033523;28;20198;-71
2024/01/17 08:11:51;;;;;;;10.03;6.97;;;-0.40;99.90;;;;;;5036151;28;20446;-71
2024/01/17 08:14:17;;;;;;;12.97;7.37;;;-0.50;99.90;;;;;;5034301;28;20870;-71
2024/01/17 08:16:45;;;;;;;9.67;6.73;;;-0.50;99.90;;;;;;5001961;28;20528;-71
2024/01/17 08:19:11;;;;;;;7.73;6.30;;;-0.40;99.90;;;;;;5035066;28;20425;-71
2024/01/17 08:21:36;;;;;;;9.83;6.70;;;-0.40;99.90;;;;;;5035776;28;20498;-71
2024/01/17 08:24:02;;;;;;;10.23;6.80;;;-0.40;99.90;;;;;;5017096;28;20862;-71
2024/01/17 08:26:28;;;;;;;11.00;6.20;;;-0.30;99.90;;;;;;5034486;28;20179;-71
2024/01/17 08:28:55;;;;;;;8.27;5.97;;;-0.30;99.90;;;;;;5034765;28;20399;-70
2024/01/17 08:31:21;;;;;;;10.37;6.47;;;-0.30;99.90;;;;;;5016488;28;20434;-72
2024/01/17 08:33:46;;;;;;;9.40;6.43;;;-0.30;99.90;;;;;;5034652;28;20442;-72
2024/01/17 08:36:14;;;;;;;18.63;6.93;;;-0.20;99.90;;;;;;5032511;28;20440;-72
2024/01/17 08:38:43;;;;;;;9.23;6.20;;;-0.20;99.90;;;;;;5035577;28;20692;-72
2024/01/17 08:41:09;;;;;;;9.63;6.80;;;-0.20;99.90;;;;;;5034279;28;20429;-72
2024/01/17 08:43:35;;;;;;;9.30;5.77;;;-0.20;99.90;;;;;;5017515;28;20511;-72
2024/01/17 08:46:02;;;;;;;8.80;6.97;;;-0.20;99.90;;;;;;5015927;28;20575;-72
2024/01/17 08:48:28;;;;;;;8.03;6.63;;;-0.10;99.90;;;;;;5035626;28;20237;-72
2024/01/17 08:50:53;;;;;;;9.57;6.70;;;-0.10;99.90;;;;;;5034541;28;20476;-72
2024/01/17 08:53:19;;;;;;;9.10;5.60;;;-0.10;99.90;;;;;;5033657;28;20503;-72
2024/01/17 08:55:46;;;;;;;9.10;7.00;;;-0.10;99.90;;;;;;5034759;28;20194;-71
2024/01/17 08:58:11;;;;;;;8.13;6.10;;;-0.10;99.90;;;;;;5032779;28;20193;-71
2024/01/17 09:00:37;;;;;;;8.47;6.13;;;0.00;99.90;;;;;;5035411;28;20433;-71
2024/01/17 09:03:04;;;;;;;11.23;7.40;;;0.00;99.90;;;;;;5033508;28;20560;-71
2024/01/17 09:05:30;;;;;;;9.60;6.40;;;0.00;99.90;;;;;;5034910;28;20333;-71
2024/01/17 09:07:56;;;;;;;9.30;6.87;;;0.10;99.90;;;;;;5034894;28;20511;-71
2024/01/17 09:10:23;;;;;;;16.23;6.87;;;0.10;99.90;;;;;;5033746;28;20426;-72
2024/01/17 09:12:50;;;;;;;12.10;7.03;;;0.20;99.90;;;;;;5035065;28;20518;-71
2024/01/17 09:15:16;;;;;;;11.70;6.63;;;0.20;99.90;;;;;;5033482;28;20893;-71
2024/01/17 09:17:42;;;;;;;8.40;6.70;;;0.30;99.90;;;;;;5016813;28;20415;-71
2024/01/17 09:20:08;;;;;;;9.67;6.50;;;0.30;99.90;;;;;;5034162;28;20433;-71
2024/01/17 09:22:33;;;;;;;10.53;7.50;;;0.30;99.90;;;;;;5034015;28;20216;-71
2024/01/17 09:25:02;;;;;;;8.97;6.87;;;0.40;99.90;;;;;;5034649;28;21359;-72
2024/01/17 09:27:31;;;;;;;10.33;6.67;;;0.40;99.90;;;;;;5034141;28;20205;-71
2024/01/17 09:29:57;;;;;;;8.30;6.83;;;0.40;99.90;;;;;;5001335;28;20439;-70
2024/01/17 09:32:22;;;;;;;12.07;7.83;;;0.40;99.90;;;;;;5033812;28;20420;-72
2024/01/17 09:34:48;;;;;;;8.37;7.20;;;0.40;99.90;;;;;;5033867;28;20870;-71
2024/01/17 09:37:17;;;;;;;12.37;7.37;;;0.40;99.90;;;;;;5033139;28;20235;-72
2024/01/17 09:39:43;;;;;;;9.50;6.77;;;0.40;99.90;;;;;;5015535;28;20182;-71
2024/01/17 09:42:10;;;;;;;11.10;7.10;;;0.50;99.90;;;;;;5033595;28;20436;-71
2024/01/17 09:44:37;;;;;;;7.77;6.83;;;0.50;99.90;;;;;;5034300;28;20478;-71
2024/01/17 09:47:05;;;;;;;8.83;7.03;;;0.50;99.90;;;;;;5033015;28;20428;-72
2024/01/17 09:49:35;;;;;;;9.00;6.30;;;0.60;99.90;;;;;;5034087;28;20860;-71
2024/01/17 09:52:05;;;;;;;8.27;6.77;;;0.60;99.90;;;;;;5032929;28;21001;-72
2024/01/17 09:54:42;;;;;;;8.83;6.93;;;0.60;99.90;;;;;;5016006;28;20525;-71
2024/01/17 09:57:13;;;;;;;8.00;6.37;;;0.70;99.90;;;;;;5033571;28;20403;-72
2024/01/17 09:59:48;;;;;;;8.50;7.00;;;0.70;99.90;;;;;;5015679;28;20885;-72
2024/01/17 10:02:16;;;;;;;11.47;6.90;;;0.70;99.90;;;;;;5032772;28;20502;-72
2024/01/17 10:04:45;;;;;;;9.03;6.30;;;0.70;99.90;;;;;;5033696;28;20893;-71
2024/01/17 10:07:12;;;;;;;11.50;7.40;;;0.80;99.90;;;;;;5032724;28;20437;-71
2024/01/17 10:09:38;;;;;;;7.83;6.40;;;0.80;99.90;;;;;;5033917;28;20428;-71
2024/01/17 10:12:05;;;;;;;9.23;7.10;;;0.80;99.90;;;;;;5032118;28;20424;-72
2024/01/17 10:14:31;;;;;;;12.10;7.70;;;0.80;99.90;;;;;;5033774;28;20433;-70
2024/01/17 10:16:57;;;;;;;10.90;7.57;;;0.90;99.90;;;;;;5015290;28;20802;-71
2024/01/17 10:19:26;;;;;;;12.20;6.87;;;0.90;99.90;;;;;;5032915;28;20174;-71
2024/01/17 10:21:52;;;;;;;10.87;7.53;;;0.90;99.90;;;;;;5033209;28;20425;-71
2024/01/17 10:24:19;;;;;;;9.40;7.10;;;0.90;99.90;;;;;;5032981;28;20526;-71
2024/01/17 10:26:45;;;;;;;8.83;7.07;;;1.00;99.90;;;;;;5032614;28;20421;-71
2024/01/17 10:29:11;;;;;;;9.23;6.80;;;1.00;99.90;;;;;;5032557;28;20422;-71
2024/01/17 10:31:41;;;;;;;10.00;7.27;;;1.00;99.90;;;;;;5033843;28;20424;-72
2024/01/17 10:34:10;;;;;;;10.50;7.57;;;1.00;99.90;;;;;;5014416;28;20520;-72
2024/01/17 10:36:39;;;;;;;11.80;7.33;;;1.10;99.90;;;;;;5033136;28;20428;-72
2024/01/17 10:39:05;;;;;;;11.57;7.60;;;1.10;99.90;;;;;;5015347;28;20440;-72
2024/01/17 10:41:32;;;;;;;11.80;7.30;;;1.10;99.90;;;;;;5033426;28;20436;-72
2024/01/17 10:44:02;;;;;;;12.83;8.90;;;1.20;99.90;;;;;;5032833;28;20456;-72
2024/01/17 10:46:28;;;;;;;8.93;7.53;;;1.20;99.90;;;;;;5033293;28;20428;-72
2024/01/17 10:48:56;;;;;;;12.97;9.53;;;1.20;99.90;;;;;;5015061;28;21289;-72
2024/01/17 10:51:23;;;;;;;10.50;7.33;;;1.20;99.90;;;;;;5032413;28;20467;-71
2024/01/17 10:53:52;;;;;;;11.50;7.90;;;1.20;99.90;;;;;;5032420;28;20429;-72
2024/01/17 10:56:22;;;;;;;12.57;7.70;;;1.20;99.90;;;;;;5032933;28;20954;-71
2024/01/17 10:58:49;;;;;;;11.03;8.00;;;1.20;99.90;;;;;;5033334;28;20471;-71
2024/01/17 11:01:20;;;;;;;11.20;7.90;;;1.20;99.90;;;;;;5031613;28;20432;-71
2024/01/17 11:03:47;;;;;;;11.73;8.10;;;1.30;99.90;;;;;;5032787;28;20436;-71
2024/01/17 11:06:15;;;;;;;12.03;7.67;;;1.30;99.90;;;;;;5031722;28;20473;-71
2024/01/17 11:08:42;;;;;;;9.80;7.77;;;1.30;99.90;;;;;;5033157;28;20761;-71
2024/01/17 11:11:09;;;;;;;12.90;8.50;;;1.30;99.90;;;;;;5038902;28;20700;-71
2024/01/17 11:13:37;;;;;;;11.70;7.93;;;1.30;99.90;;;;;;5039040;28;20969;-71
2024/01/17 11:16:06;;;;;;;10.00;7.67;;;1.30;99.90;;;;;;5038256;28;20441;-71
2024/01/17 11:18:35;;;;;;;10.00;7.50;;;1.30;99.90;;;;;;5021437;28;20425;-71
2024/01/17 11:21:02;;;;;;;11.73;8.40;;;1.30;99.90;;;;;;5038164;28;20478;-72
2024/01/17 11:23:41;;;;;;;10.20;7.80;;;1.30;99.90;;;;;;5039604;28;20448;-71
2024/01/17 11:26:32;;;;;;;8.70;6.93;;;1.40;99.90;;;;;;5037861;28;20877;-71
2024/01/17 11:29:05;;;;;;;11.73;7.80;;;1.40;99.90;;;;;;5038800;28;20483;-71
2024/01/17 11:31:33;;;;;;;9.97;7.87;;;1.40;99.90;;;;;;5038883;28;20927;-71
2024/01/17 11:33:59;;;;;;;10.93;8.20;;;1.40;99.90;;;;;;5038718;28;20428;-71
2024/01/17 11:36:45;;;;;;;13.93;7.03;;;1.40;99.90;;;;;;5039145;28;21275;-71
2024/01/17 11:39:18;;;;;;;11.70;7.63;;;1.40;99.90;;;;;;5039085;28;20531;-71
2024/01/17 11:41:45;;;;;;;8.37;7.20;;;1.40;99.90;;;;;;5038684;28;20432;-71
2024/01/17 11:44:11;;;;;;;9.50;7.60;;;1.40;99.90;;;;;;5037707;28;20850;-71
2024/01/17 11:46:38;;;;;;;10.10;8.53;;;1.40;99.90;;;;;;5021755;28;20428;-71
2024/01/17 11:49:05;;;;;;;9.67;7.53;;;1.40;99.90;;;;;;5038231;28;20456;-71
2024/01/17 11:51:34;;;;;;;14.70;7.70;;;1.40;99.90;;;;;;5038809;28;20440;-71
2024/01/17 11:54:05;;;;;;;12.83;8.60;;;1.40;99.90;;;;;;5038913;28;20432;-71
2024/01/17 11:56:30;;;;;;;10.20;7.93;;;1.40;99.90;;;;;;5038499;28;21013;-71
2024/01/17 11:59:08;;;;;;;11.10;8.57;;;1.40;99.90;;;;;;5020945;28;20432;-71
2024/01/17 12:01:36;;;;;;;7.73;6.80;;;1.50;99.90;;;;;;5039342;28;20839;-71
2024/01/17 12:04:13;;;;;;;10.97;8.53;;;1.50;99.90;;;;;;5037777;28;20460;-72
2024/01/17 12:06:40;;;;;;;10.73;8.07;;;1.50;99.90;;;;;;5006452;28;20436;-71
2024/01/17 12:09:08;;;;;;;9.67;7.70;;;1.50;99.90;;;;;;5037613;28;20780;-71
2024/01/17 12:11:34;;;;;;;11.47;8.13;;;1.50;99.90;;;;;;5038590;28;20439;-71
2024/01/17 12:14:01;;;;;;;10.60;7.77;;;1.50;99.90;;;;;;5037290;28;20421;-71
2024/01/17 12:16:26;;;;;;;12.07;8.23;;;1.50;99.90;;;;;;5020089;28;20447;-71
2024/01/17 12:19:00;;;;;;;11.43;7.87;;;1.50;99.90;;;;;;5038564;28;20902;-72
2024/01/17 12:21:26;;;;;;;12.67;8.20;;;1.50;99.90;;;;;;5034752;28;20205;-71
2024/01/17 12:23:52;;;;;;;14.80;7.97;;;1.50;99.90;;;;;;5035563;28;20435;-71
2024/01/17 12:26:18;;;;;;;11.43;8.20;;;1.50;99.90;;;;;;5016898;28;20479;-72
2024/01/17 12:28:45;;;;;;;10.87;8.60;;;1.50;99.90;;;;;;5035380;28;20538;-71
2024/01/17 12:31:11;;;;;;;15.47;9.43;;;1.50;99.90;;;;;;5034108;28;20800;-71
2024/01/17 12:33:38;;;;;;;11.10;8.13;;;1.60;99.90;;;;;;5034867;28;20416;-71
2024/01/17 12:36:05;;;;;;;13.23;8.77;;;1.60;99.90;;;;;;5034506;28;20838;-71
2024/01/17 12:38:33;;;;;;;9.80;7.77;;;1.60;99.90;;;;;;5035310;28;20436;-71
2024/01/17 12:41:00;;;;;;;13.60;9.77;;;1.60;99.90;;;;;;5035150;28;20531;-71